sensor_id;sensor_type;location;lat;lon;timestamp;P1;durP1;ratioP1;P2;durP2;ratioP2
48941;SDS011;35340;52.378;4.648;2023-03-01T00:06:24;2.40;;;1.70;;
48941;SDS011;35340;52.378;4.648;2023-03-01T00:08:50;2.35;;;1.60;;
48941;SDS011;35340;52.378;4.648;2023-03-01T00:11:20;2.40;;;1.50;;
48941;SDS011;35340;52.378;4.648;2023-03-01T00:16:34;3.35;;;1.70;;
48941;SDS011;35340;52.378;4.648;2023-03-01T00:19:03;2.28;;;1.30;;
48941;SDS011;35340;52.378;4.648;2023-03-01T00:21:31;2.60;;;1.50;;
48941;SDS011;35340;52.378;4.648;2023-03-01T00:23:57;2.30;;;1.50;;
48941;SDS011;35340;52.378;4.648;2023-03-01T00:26:23;3.05;;;1.70;;
48941;SDS011;35340;52.378;4.648;2023-03-01T00:32:43;2.00;;;1.40;;
48941;SDS011;35340;52.378;4.648;2023-03-01T00:35:08;2.22;;;1.40;;
48941;SDS011;35340;52.378;4.648;2023-03-01T00:40:48;1.90;;;1.25;;
48941;SDS011;35340;52.378;4.648;2023-03-01T00:43:14;3.88;;;1.50;;
48941;SDS011;35340;52.378;4.648;2023-03-01T00:45:40;2.13;;;1.58;;
48941;SDS011;35340;52.378;4.648;2023-03-01T00:48:05;2.08;;;1.20;;
48941;SDS011;35340;52.378;4.648;2023-03-01T00:50:31;2.17;;;1.45;;
48941;SDS011;35340;52.378;4.648;2023-03-01T00:52:56;2.35;;;1.30;;
48941;SDS011;35340;52.378;4.648;2023-03-01T00:55:22;6.10;;;1.70;;
48941;SDS011;35340;52.378;4.648;2023-03-01T00:57:48;2.08;;;1.42;;
48941;SDS011;35340;52.378;4.648;2023-03-01T01:00:14;1.58;;;1.40;;
48941;SDS011;35340;52.378;4.648;2023-03-01T01:02:39;2.33;;;1.50;;
48941;SDS011;35340;52.378;4.648;2023-03-01T01:05:05;2.00;;;1.20;;
48941;SDS011;35340;52.378;4.648;2023-03-01T01:10:20;3.33;;;1.50;;
48941;SDS011;35340;52.378;4.648;2023-03-01T01:12:46;1.73;;;1.40;;
48941;SDS011;35340;52.378;4.648;2023-03-01T01:15:17;3.40;;;1.20;;
48941;SDS011;35340;52.378;4.648;2023-03-01T01:18:06;1.80;;;1.30;;
48941;SDS011;35340;52.378;4.648;2023-03-01T01:20:32;2.42;;;1.50;;
48941;SDS011;35340;52.378;4.648;2023-03-01T01:22:57;1.65;;;1.30;;
48941;SDS011;35340;52.378;4.648;2023-03-01T01:25:23;1.60;;;1.20;;
48941;SDS011;35340;52.378;4.648;2023-03-01T01:27:51;2.03;;;1.33;;
48941;SDS011;35340;52.378;4.648;2023-03-01T01:30:16;2.70;;;1.30;;
48941;SDS011;35340;52.378;4.648;2023-03-01T01:32:42;1.60;;;1.25;;
48941;SDS011;35340;52.378;4.648;2023-03-01T01:37:50;2.47;;;1.20;;
48941;SDS011;35340;52.378;4.648;2023-03-01T01:40:15;1.60;;;1.10;;
48941;SDS011;35340;52.378;4.648;2023-03-01T01:48:05;1.35;;;1.15;;
48941;SDS011;35340;52.378;4.648;2023-03-01T01:58:21;1.38;;;1.08;;
48941;SDS011;35340;52.378;4.648;2023-03-01T02:00:47;1.55;;;1.10;;
48941;SDS011;35340;52.378;4.648;2023-03-01T02:03:14;2.03;;;1.20;;
48941;SDS011;35340;52.378;4.648;2023-03-01T02:05:52;1.55;;;1.05;;
48941;SDS011;35340;52.378;4.648;2023-03-01T02:08:23;1.17;;;0.98;;
48941;SDS011;35340;52.378;4.648;2023-03-01T02:10:50;1.30;;;1.08;;
48941;SDS011;35340;52.378;4.648;2023-03-01T02:15:52;2.13;;;1.05;;
48941;SDS011;35340;52.378;4.648;2023-03-01T02:18:19;2.35;;;0.88;;
48941;SDS011;35340;52.378;4.648;2023-03-01T02:31:19;1.70;;;1.05;;
48941;SDS011;35340;52.378;4.648;2023-03-01T02:34:05;1.35;;;1.02;;
48941;SDS011;35340;52.378;4.648;2023-03-01T02:44:18;1.77;;;1.08;;
48941;SDS011;35340;52.378;4.648;2023-03-01T03:06:02;1.30;;;0.93;;
48941;SDS011;35340;52.378;4.648;2023-03-01T03:18:48;1.85;;;0.80;;
48941;SDS011;35340;52.378;4.648;2023-03-01T03:21:14;1.48;;;1.00;;
48941;SDS011;35340;52.378;4.648;2023-03-01T03:23:41;1.10;;;0.80;;
48941;SDS011;35340;52.378;4.648;2023-03-01T03:31:18;1.20;;;0.93;;
48941;SDS011;35340;52.378;4.648;2023-03-01T03:42:10;1.17;;;0.90;;
48941;SDS011;35340;52.378;4.648;2023-03-01T03:44:36;1.73;;;0.98;;
48941;SDS011;35340;52.378;4.648;2023-03-01T04:00:11;1.33;;;0.90;;
48941;SDS011;35340;52.378;4.648;2023-03-01T04:02:38;1.00;;;0.90;;
48941;SDS011;35340;52.378;4.648;2023-03-01T04:07:41;1.30;;;0.93;;
48941;SDS011;35340;52.378;4.648;2023-03-01T04:15:17;1.15;;;0.73;;
48941;SDS011;35340;52.378;4.648;2023-03-01T04:20:20;1.25;;;0.90;;
48941;SDS011;35340;52.378;4.648;2023-03-01T04:22:49;1.65;;;1.00;;
48941;SDS011;35340;52.378;4.648;2023-03-01T04:25:17;1.08;;;0.90;;
48941;SDS011;35340;52.378;4.648;2023-03-01T04:27:43;1.00;;;0.73;;
48941;SDS011;35340;52.378;4.648;2023-03-01T04:30:08;0.80;;;0.80;;
48941;SDS011;35340;52.378;4.648;2023-03-01T04:32:35;1.60;;;0.88;;
48941;SDS011;35340;52.378;4.648;2023-03-01T04:35:00;1.05;;;0.80;;
48941;SDS011;35340;52.378;4.648;2023-03-01T04:37:26;1.70;;;0.90;;
48941;SDS011;35340;52.378;4.648;2023-03-01T04:39:52;2.72;;;0.93;;
48941;SDS011;35340;52.378;4.648;2023-03-01T04:42:18;1.38;;;0.88;;
48941;SDS011;35340;52.378;4.648;2023-03-01T04:44:44;0.80;;;0.70;;
48941;SDS011;35340;52.378;4.648;2023-03-01T04:47:09;1.52;;;1.08;;
48941;SDS011;35340;52.378;4.648;2023-03-01T04:49:35;1.13;;;0.90;;
48941;SDS011;35340;52.378;4.648;2023-03-01T04:52:01;1.10;;;0.80;;
48941;SDS011;35340;52.378;4.648;2023-03-01T04:54:27;1.83;;;0.82;;
48941;SDS011;35340;52.378;4.648;2023-03-01T04:56:54;1.23;;;0.90;;
48941;SDS011;35340;52.378;4.648;2023-03-01T04:59:19;1.10;;;0.70;;
48941;SDS011;35340;52.378;4.648;2023-03-01T05:01:47;1.13;;;0.77;;
48941;SDS011;35340;52.378;4.648;2023-03-01T05:04:13;1.35;;;0.93;;
48941;SDS011;35340;52.378;4.648;2023-03-01T05:06:39;1.38;;;0.80;;
48941;SDS011;35340;52.378;4.648;2023-03-01T05:09:04;1.42;;;0.77;;
48941;SDS011;35340;52.378;4.648;2023-03-01T05:11:30;2.45;;;0.63;;
48941;SDS011;35340;52.378;4.648;2023-03-01T05:13:58;1.00;;;0.70;;
48941;SDS011;35340;52.378;4.648;2023-03-01T05:16:24;0.80;;;0.80;;
48941;SDS011;35340;52.378;4.648;2023-03-01T05:18:49;1.50;;;0.82;;
48941;SDS011;35340;52.378;4.648;2023-03-01T05:21:20;1.00;;;0.70;;
48941;SDS011;35340;52.378;4.648;2023-03-01T05:23:46;3.00;;;0.77;;
48941;SDS011;35340;52.378;4.648;2023-03-01T05:26:11;0.98;;;0.85;;
48941;SDS011;35340;52.378;4.648;2023-03-01T05:28:38;1.00;;;0.70;;
48941;SDS011;35340;52.378;4.648;2023-03-01T05:31:04;1.15;;;0.80;;
48941;SDS011;35340;52.378;4.648;2023-03-01T05:33:34;1.48;;;0.80;;
48941;SDS011;35340;52.378;4.648;2023-03-01T05:36:02;1.65;;;0.80;;
48941;SDS011;35340;52.378;4.648;2023-03-01T05:38:27;1.10;;;0.80;;
48941;SDS011;35340;52.378;4.648;2023-03-01T05:40:53;1.42;;;0.70;;
48941;SDS011;35340;52.378;4.648;2023-03-01T05:43:18;0.98;;;0.75;;
48941;SDS011;35340;52.378;4.648;2023-03-01T05:45:44;0.98;;;0.65;;
48941;SDS011;35340;52.378;4.648;2023-03-01T05:48:10;1.15;;;0.80;;
48941;SDS011;35340;52.378;4.648;2023-03-01T05:50:40;1.58;;;0.90;;
48941;SDS011;35340;52.378;4.648;2023-03-01T05:53:18;0.88;;;0.68;;
48941;SDS011;35340;52.378;4.648;2023-03-01T05:55:48;0.98;;;0.55;;
48941;SDS011;35340;52.378;4.648;2023-03-01T05:58:15;0.70;;;0.60;;
48941;SDS011;35340;52.378;4.648;2023-03-01T06:00:47;1.00;;;0.68;;
48941;SDS011;35340;52.378;4.648;2023-03-01T06:03:14;1.15;;;0.88;;
48941;SDS011;35340;52.378;4.648;2023-03-01T06:05:41;1.10;;;0.80;;
48941;SDS011;35340;52.378;4.648;2023-03-01T06:08:08;0.98;;;0.60;;
48941;SDS011;35340;52.378;4.648;2023-03-01T06:10:34;1.17;;;0.70;;
48941;SDS011;35340;52.378;4.648;2023-03-01T06:13:03;1.58;;;1.00;;
48941;SDS011;35340;52.378;4.648;2023-03-01T06:15:28;1.30;;;0.80;;
48941;SDS011;35340;52.378;4.648;2023-03-01T06:17:55;1.00;;;0.70;;
48941;SDS011;35340;52.378;4.648;2023-03-01T06:20:25;1.08;;;0.70;;
48941;SDS011;35340;52.378;4.648;2023-03-01T06:22:51;1.23;;;0.70;;
48941;SDS011;35340;52.378;4.648;2023-03-01T06:25:19;2.75;;;0.77;;
48941;SDS011;35340;52.378;4.648;2023-03-01T06:27:46;1.67;;;0.93;;
48941;SDS011;35340;52.378;4.648;2023-03-01T06:30:14;2.75;;;0.80;;
48941;SDS011;35340;52.378;4.648;2023-03-01T06:32:41;1.45;;;0.80;;
48941;SDS011;35340;52.378;4.648;2023-03-01T06:35:07;0.88;;;0.70;;
48941;SDS011;35340;52.378;4.648;2023-03-01T06:37:34;1.17;;;0.80;;
48941;SDS011;35340;52.378;4.648;2023-03-01T06:40:02;1.05;;;0.73;;
48941;SDS011;35340;52.378;4.648;2023-03-01T06:42:36;2.08;;;0.93;;
48941;SDS011;35340;52.378;4.648;2023-03-01T06:45:03;1.50;;;1.00;;
48941;SDS011;35340;52.378;4.648;2023-03-01T06:47:30;1.77;;;1.00;;
48941;SDS011;35340;52.378;4.648;2023-03-01T06:49:55;1.70;;;1.05;;
48941;SDS011;35340;52.378;4.648;2023-03-01T06:52:21;20.05;;;1.50;;
48941;SDS011;35340;52.378;4.648;2023-03-01T07:00:58;12.00;;;2.95;;
48941;SDS011;35340;52.378;4.648;2023-03-01T07:03:23;7.28;;;2.40;;
48941;SDS011;35340;52.378;4.648;2023-03-01T07:05:49;5.78;;;2.42;;
48941;SDS011;35340;52.378;4.648;2023-03-01T07:08:17;8.05;;;2.50;;
48941;SDS011;35340;52.378;4.648;2023-03-01T07:10:43;7.20;;;2.47;;
48941;SDS011;35340;52.378;4.648;2023-03-01T07:13:08;5.57;;;2.10;;
48941;SDS011;35340;52.378;4.648;2023-03-01T07:15:33;10.70;;;2.33;;
48941;SDS011;35340;52.378;4.648;2023-03-01T07:17:59;7.05;;;2.30;;
48941;SDS011;35340;52.378;4.648;2023-03-01T07:20:24;5.50;;;2.10;;
48941;SDS011;35340;52.378;4.648;2023-03-01T07:22:52;7.25;;;2.45;;
48941;SDS011;35340;52.378;4.648;2023-03-01T07:25:19;6.95;;;2.10;;
48941;SDS011;35340;52.378;4.648;2023-03-01T07:27:49;6.53;;;2.63;;
48941;SDS011;35340;52.378;4.648;2023-03-01T07:30:16;5.57;;;2.47;;
48941;SDS011;35340;52.378;4.648;2023-03-01T07:32:41;5.60;;;2.20;;
48941;SDS011;35340;52.378;4.648;2023-03-01T07:35:07;5.88;;;2.47;;
48941;SDS011;35340;52.378;4.648;2023-03-01T07:37:33;4.20;;;2.28;;
48941;SDS011;35340;52.378;4.648;2023-03-01T07:39:58;5.85;;;1.90;;
48941;SDS011;35340;52.378;4.648;2023-03-01T07:42:23;4.68;;;2.17;;
48941;SDS011;35340;52.378;4.648;2023-03-01T07:44:49;5.28;;;2.13;;
48941;SDS011;35340;52.378;4.648;2023-03-01T07:47:14;4.22;;;2.15;;
48941;SDS011;35340;52.378;4.648;2023-03-01T07:49:40;3.88;;;2.35;;
48941;SDS011;35340;52.378;4.648;2023-03-01T07:52:11;4.60;;;2.15;;
48941;SDS011;35340;52.378;4.648;2023-03-01T07:54:37;3.90;;;2.10;;
48941;SDS011;35340;52.378;4.648;2023-03-01T07:57:03;4.13;;;2.17;;
48941;SDS011;35340;52.378;4.648;2023-03-01T07:59:29;3.50;;;1.95;;
48941;SDS011;35340;52.378;4.648;2023-03-01T08:02:12;3.17;;;1.90;;
48941;SDS011;35340;52.378;4.648;2023-03-01T08:04:40;6.03;;;2.53;;
48941;SDS011;35340;52.378;4.648;2023-03-01T08:07:08;4.38;;;2.35;;
48941;SDS011;35340;52.378;4.648;2023-03-01T08:09:37;4.55;;;2.20;;
48941;SDS011;35340;52.378;4.648;2023-03-01T08:12:03;5.07;;;2.15;;
48941;SDS011;35340;52.378;4.648;2023-03-01T08:14:32;5.07;;;2.10;;
48941;SDS011;35340;52.378;4.648;2023-03-01T08:16:57;4.32;;;1.92;;
48941;SDS011;35340;52.378;4.648;2023-03-01T08:19:23;7.90;;;2.10;;
48941;SDS011;35340;52.378;4.648;2023-03-01T08:21:49;8.57;;;2.38;;
48941;SDS011;35340;52.378;4.648;2023-03-01T08:24:14;3.25;;;1.98;;
48941;SDS011;35340;52.378;4.648;2023-03-01T08:26:40;3.45;;;1.92;;
48941;SDS011;35340;52.378;4.648;2023-03-01T08:29:05;4.35;;;2.13;;
48941;SDS011;35340;52.378;4.648;2023-03-01T08:31:34;3.60;;;1.90;;
48941;SDS011;35340;52.378;4.648;2023-03-01T08:34:05;3.20;;;2.03;;
48941;SDS011;35340;52.378;4.648;2023-03-01T08:36:35;4.22;;;1.88;;
48941;SDS011;35340;52.378;4.648;2023-03-01T08:39:02;2.83;;;2.05;;
48941;SDS011;35340;52.378;4.648;2023-03-01T08:41:28;2.92;;;1.98;;
48941;SDS011;35340;52.378;4.648;2023-03-01T08:43:57;2.75;;;1.73;;
48941;SDS011;35340;52.378;4.648;2023-03-01T08:46:29;2.75;;;2.08;;
48941;SDS011;35340;52.378;4.648;2023-03-01T08:49:03;4.15;;;2.08;;
48941;SDS011;35340;52.378;4.648;2023-03-01T08:51:33;2.38;;;1.83;;
48941;SDS011;35340;52.378;4.648;2023-03-01T08:54:05;2.97;;;1.90;;
48941;SDS011;35340;52.378;4.648;2023-03-01T08:56:32;2.72;;;1.75;;
48941;SDS011;35340;52.378;4.648;2023-03-01T08:58:57;2.85;;;1.70;;
48941;SDS011;35340;52.378;4.648;2023-03-01T09:01:23;3.15;;;1.98;;
48941;SDS011;35340;52.378;4.648;2023-03-01T09:03:48;2.38;;;1.80;;
48941;SDS011;35340;52.378;4.648;2023-03-01T09:06:14;2.55;;;1.58;;
48941;SDS011;35340;52.378;4.648;2023-03-01T09:08:41;2.53;;;1.52;;
48941;SDS011;35340;52.378;4.648;2023-03-01T09:11:12;2.78;;;1.70;;
48941;SDS011;35340;52.378;4.648;2023-03-01T09:13:41;3.95;;;1.92;;
48941;SDS011;35340;52.378;4.648;2023-03-01T09:16:07;3.08;;;1.75;;
48941;SDS011;35340;52.378;4.648;2023-03-01T09:18:33;2.63;;;1.80;;
48941;SDS011;35340;52.378;4.648;2023-03-01T09:21:06;2.92;;;1.88;;
48941;SDS011;35340;52.378;4.648;2023-03-01T09:23:37;2.38;;;1.77;;
48941;SDS011;35340;52.378;4.648;2023-03-01T09:26:10;2.65;;;1.67;;
48941;SDS011;35340;52.378;4.648;2023-03-01T09:28:41;4.00;;;1.70;;
48941;SDS011;35340;52.378;4.648;2023-03-01T09:31:07;3.05;;;1.60;;
48941;SDS011;35340;52.378;4.648;2023-03-01T09:33:32;3.03;;;1.70;;
48941;SDS011;35340;52.378;4.648;2023-03-01T09:36:02;2.38;;;1.73;;
48941;SDS011;35340;52.378;4.648;2023-03-01T09:38:29;2.28;;;1.38;;
48941;SDS011;35340;52.378;4.648;2023-03-01T09:40:55;3.35;;;1.77;;
48941;SDS011;35340;52.378;4.648;2023-03-01T09:46:19;2.92;;;1.77;;
48941;SDS011;35340;52.378;4.648;2023-03-01T09:49:00;3.60;;;1.90;;
48941;SDS011;35340;52.378;4.648;2023-03-01T09:51:32;2.42;;;1.60;;
48941;SDS011;35340;52.378;4.648;2023-03-01T09:54:00;3.15;;;1.85;;
48941;SDS011;35340;52.378;4.648;2023-03-01T09:56:38;2.97;;;1.90;;
48941;SDS011;35340;52.378;4.648;2023-03-01T09:59:49;2.50;;;1.40;;
48941;SDS011;35340;52.378;4.648;2023-03-01T10:05:05;3.38;;;1.90;;
48941;SDS011;35340;52.378;4.648;2023-03-01T10:07:58;2.38;;;1.67;;
48941;SDS011;35340;52.378;4.648;2023-03-01T10:10:47;2.03;;;1.50;;
48941;SDS011;35340;52.378;4.648;2023-03-01T10:15:50;2.22;;;1.67;;
48941;SDS011;35340;52.378;4.648;2023-03-01T10:18:20;1.98;;;1.40;;
48941;SDS011;35340;52.378;4.648;2023-03-01T10:20:54;2.30;;;1.52;;
48941;SDS011;35340;52.378;4.648;2023-03-01T10:23:24;2.70;;;1.67;;
48941;SDS011;35340;52.378;4.648;2023-03-01T10:25:55;2.75;;;1.85;;
48941;SDS011;35340;52.378;4.648;2023-03-01T10:28:31;2.45;;;1.75;;
48941;SDS011;35340;52.378;4.648;2023-03-01T10:31:19;2.83;;;1.77;;
48941;SDS011;35340;52.378;4.648;2023-03-01T10:33:52;2.60;;;1.70;;
48941;SDS011;35340;52.378;4.648;2023-03-01T10:36:20;2.45;;;1.90;;
48941;SDS011;35340;52.378;4.648;2023-03-01T10:41:51;2.40;;;1.70;;
48941;SDS011;35340;52.378;4.648;2023-03-01T10:44:35;3.05;;;2.00;;
48941;SDS011;35340;52.378;4.648;2023-03-01T10:47:25;2.72;;;1.80;;
48941;SDS011;35340;52.378;4.648;2023-03-01T10:49:56;2.80;;;1.98;;
48941;SDS011;35340;52.378;4.648;2023-03-01T10:52:33;3.08;;;1.90;;
48941;SDS011;35340;52.378;4.648;2023-03-01T10:57:38;3.75;;;1.90;;
48941;SDS011;35340;52.378;4.648;2023-03-01T11:02:46;3.03;;;1.88;;
48941;SDS011;35340;52.378;4.648;2023-03-01T11:05:18;2.67;;;1.77;;
48941;SDS011;35340;52.378;4.648;2023-03-01T11:07:47;2.72;;;1.70;;
48941;SDS011;35340;52.378;4.648;2023-03-01T11:10:34;3.47;;;1.60;;
48941;SDS011;35340;52.378;4.648;2023-03-01T11:16:13;1.98;;;1.67;;
48941;SDS011;35340;52.378;4.648;2023-03-01T11:21:00;2.00;;;1.40;;
48941;SDS011;35340;52.378;4.648;2023-03-01T11:23:27;2.55;;;1.50;;
48941;SDS011;35340;52.378;4.648;2023-03-01T11:25:55;2.38;;;1.48;;
48941;SDS011;35340;52.378;4.648;2023-03-01T11:28:27;2.10;;;1.48;;
48941;SDS011;35340;52.378;4.648;2023-03-01T11:33:46;2.15;;;1.50;;
48941;SDS011;35340;52.378;4.648;2023-03-01T11:37:05;2.22;;;1.30;;
48941;SDS011;35340;52.378;4.648;2023-03-01T11:41:43;2.57;;;1.40;;
48941;SDS011;35340;52.378;4.648;2023-03-01T11:44:21;2.05;;;1.50;;
48941;SDS011;35340;52.378;4.648;2023-03-01T11:46:54;1.92;;;1.27;;
48941;SDS011;35340;52.378;4.648;2023-03-01T11:49:33;1.90;;;1.40;;
48941;SDS011;35340;52.378;4.648;2023-03-01T12:14:46;2.38;;;1.30;;
48941;SDS011;35340;52.378;4.648;2023-03-01T12:20:32;1.65;;;1.10;;
48941;SDS011;35340;52.378;4.648;2023-03-01T12:23:16;1.65;;;1.20;;
48941;SDS011;35340;52.378;4.648;2023-03-01T12:33:55;1.67;;;1.10;;
48941;SDS011;35340;52.378;4.648;2023-03-01T12:41:51;2.35;;;1.30;;
48941;SDS011;35340;52.378;4.648;2023-03-01T12:44:27;1.90;;;1.25;;
48941;SDS011;35340;52.378;4.648;2023-03-01T12:47:24;1.63;;;1.05;;
48941;SDS011;35340;52.378;4.648;2023-03-01T12:50:02;3.53;;;1.10;;
48941;SDS011;35340;52.378;4.648;2023-03-01T12:55:16;2.15;;;1.30;;
48941;SDS011;35340;52.378;4.648;2023-03-01T13:01:36;1.38;;;1.10;;
48941;SDS011;35340;52.378;4.648;2023-03-01T13:09:31;3.08;;;1.20;;
48941;SDS011;35340;52.378;4.648;2023-03-01T13:12:41;1.80;;;1.10;;
48941;SDS011;35340;52.378;4.648;2023-03-01T13:17:58;2.42;;;1.45;;
48941;SDS011;35340;52.378;4.648;2023-03-01T13:28:36;2.15;;;1.25;;
48941;SDS011;35340;52.378;4.648;2023-03-01T13:33:49;2.00;;;1.30;;
48941;SDS011;35340;52.378;4.648;2023-03-01T13:44:18;1.60;;;1.10;;
48941;SDS011;35340;52.378;4.648;2023-03-01T13:46:51;1.35;;;1.02;;
48941;SDS011;35340;52.378;4.648;2023-03-01T13:49:21;2.20;;;1.23;;
48941;SDS011;35340;52.378;4.648;2023-03-01T13:51:50;1.60;;;1.23;;
48941;SDS011;35340;52.378;4.648;2023-03-01T13:54:18;2.10;;;1.10;;
48941;SDS011;35340;52.378;4.648;2023-03-01T13:56:51;1.65;;;1.20;;
48941;SDS011;35340;52.378;4.648;2023-03-01T13:59:19;1.50;;;1.10;;
48941;SDS011;35340;52.378;4.648;2023-03-01T14:01:56;2.00;;;1.10;;
48941;SDS011;35340;52.378;4.648;2023-03-01T14:06:50;2.03;;;1.10;;
48941;SDS011;35340;52.378;4.648;2023-03-01T14:09:21;1.55;;;1.08;;
48941;SDS011;35340;52.378;4.648;2023-03-01T14:12:02;3.13;;;1.20;;
48941;SDS011;35340;52.378;4.648;2023-03-01T14:19:57;1.67;;;1.10;;
48941;SDS011;35340;52.378;4.648;2023-03-01T14:22:29;2.45;;;1.10;;
48941;SDS011;35340;52.378;4.648;2023-03-01T14:25:01;1.90;;;1.20;;
48941;SDS011;35340;52.378;4.648;2023-03-01T14:27:38;1.42;;;1.00;;
48941;SDS011;35340;52.378;4.648;2023-03-01T14:32:48;1.73;;;1.00;;
48941;SDS011;35340;52.378;4.648;2023-03-01T14:35:26;1.75;;;1.08;;
48941;SDS011;35340;52.378;4.648;2023-03-01T14:37:54;2.42;;;1.10;;
48941;SDS011;35340;52.378;4.648;2023-03-01T14:42:53;1.75;;;1.08;;
48941;SDS011;35340;52.378;4.648;2023-03-01T14:45:21;1.27;;;1.05;;
48941;SDS011;35340;52.378;4.648;2023-03-01T14:47:49;1.80;;;1.17;;
48941;SDS011;35340;52.378;4.648;2023-03-01T14:50:24;2.33;;;1.20;;
48941;SDS011;35340;52.378;4.648;2023-03-01T14:52:55;2.22;;;1.17;;
48941;SDS011;35340;52.378;4.648;2023-03-01T14:55:29;2.80;;;1.10;;
48941;SDS011;35340;52.378;4.648;2023-03-01T14:57:56;1.70;;;1.13;;
48941;SDS011;35340;52.378;4.648;2023-03-01T15:00:23;1.75;;;1.20;;
48941;SDS011;35340;52.378;4.648;2023-03-01T15:02:51;1.50;;;1.10;;
48941;SDS011;35340;52.378;4.648;2023-03-01T15:05:21;1.40;;;1.20;;
48941;SDS011;35340;52.378;4.648;2023-03-01T15:07:54;2.15;;;1.13;;
48941;SDS011;35340;52.378;4.648;2023-03-01T15:10:22;2.25;;;1.25;;
48941;SDS011;35340;52.378;4.648;2023-03-01T15:12:53;2.08;;;1.20;;
48941;SDS011;35340;52.378;4.648;2023-03-01T15:15:19;1.73;;;1.25;;
48941;SDS011;35340;52.378;4.648;2023-03-01T15:17:55;1.48;;;1.10;;
48941;SDS011;35340;52.378;4.648;2023-03-01T15:20:23;2.13;;;1.13;;
48941;SDS011;35340;52.378;4.648;2023-03-01T15:22:52;1.98;;;1.25;;
48941;SDS011;35340;52.378;4.648;2023-03-01T15:25:21;1.73;;;0.93;;
48941;SDS011;35340;52.378;4.648;2023-03-01T15:27:50;1.80;;;1.05;;
48941;SDS011;35340;52.378;4.648;2023-03-01T15:30:20;2.15;;;1.30;;
48941;SDS011;35340;52.378;4.648;2023-03-01T15:32:48;1.60;;;1.00;;
48941;SDS011;35340;52.378;4.648;2023-03-01T15:35:45;1.52;;;0.80;;
48941;SDS011;35340;52.378;4.648;2023-03-01T15:43:53;1.60;;;1.20;;
48941;SDS011;35340;52.378;4.648;2023-03-01T15:46:38;1.75;;;1.20;;
48941;SDS011;35340;52.378;4.648;2023-03-01T15:49:05;1.38;;;1.13;;
48941;SDS011;35340;52.378;4.648;2023-03-01T15:51:50;1.70;;;1.10;;
48941;SDS011;35340;52.378;4.648;2023-03-01T15:54:18;2.17;;;1.20;;
48941;SDS011;35340;52.378;4.648;2023-03-01T15:56:48;1.75;;;1.17;;
48941;SDS011;35340;52.378;4.648;2023-03-01T15:59:14;1.92;;;1.08;;
48941;SDS011;35340;52.378;4.648;2023-03-01T16:01:43;2.28;;;1.05;;
48941;SDS011;35340;52.378;4.648;2023-03-01T16:04:10;2.03;;;1.10;;
48941;SDS011;35340;52.378;4.648;2023-03-01T16:06:38;1.85;;;1.10;;
48941;SDS011;35340;52.378;4.648;2023-03-01T16:09:04;1.40;;;0.90;;
48941;SDS011;35340;52.378;4.648;2023-03-01T16:11:30;1.05;;;0.80;;
48941;SDS011;35340;52.378;4.648;2023-03-01T16:13:57;5.13;;;1.23;;
48941;SDS011;35340;52.378;4.648;2023-03-01T16:16:22;1.73;;;0.80;;
48941;SDS011;35340;52.378;4.648;2023-03-01T16:18:48;5.68;;;0.90;;
48941;SDS011;35340;52.378;4.648;2023-03-01T16:21:14;3.13;;;0.95;;
48941;SDS011;35340;52.378;4.648;2023-03-01T16:23:44;3.63;;;1.88;;
48941;SDS011;35340;52.378;4.648;2023-03-01T16:26:09;6.05;;;2.75;;
48941;SDS011;35340;52.378;4.648;2023-03-01T16:28:35;5.45;;;2.15;;
48941;SDS011;35340;52.378;4.648;2023-03-01T16:31:00;5.82;;;2.58;;
48941;SDS011;35340;52.378;4.648;2023-03-01T16:33:29;9.30;;;2.05;;
48941;SDS011;35340;52.378;4.648;2023-03-01T16:35:54;5.22;;;1.92;;
48941;SDS011;35340;52.378;4.648;2023-03-01T16:38:20;4.60;;;1.85;;
48941;SDS011;35340;52.378;4.648;2023-03-01T16:40:50;4.65;;;2.47;;
48941;SDS011;35340;52.378;4.648;2023-03-01T16:43:16;6.45;;;1.90;;
48941;SDS011;35340;52.378;4.648;2023-03-01T16:45:41;3.03;;;1.55;;
48941;SDS011;35340;52.378;4.648;2023-03-01T16:48:09;3.65;;;1.50;;
48941;SDS011;35340;52.378;4.648;2023-03-01T16:50:35;4.40;;;1.60;;
48941;SDS011;35340;52.378;4.648;2023-03-01T16:53:01;5.47;;;1.65;;
48941;SDS011;35340;52.378;4.648;2023-03-01T16:55:27;3.22;;;1.30;;
48941;SDS011;35340;52.378;4.648;2023-03-01T16:57:53;1.98;;;1.20;;
48941;SDS011;35340;52.378;4.648;2023-03-01T17:00:19;2.95;;;1.20;;
48941;SDS011;35340;52.378;4.648;2023-03-01T17:02:44;2.42;;;1.20;;
48941;SDS011;35340;52.378;4.648;2023-03-01T17:05:10;3.20;;;1.38;;
48941;SDS011;35340;52.378;4.648;2023-03-01T17:07:39;3.72;;;1.13;;
48941;SDS011;35340;52.378;4.648;2023-03-01T17:10:05;2.17;;;1.13;;
48941;SDS011;35340;52.378;4.648;2023-03-01T17:12:34;3.30;;;1.17;;
48941;SDS011;35340;52.378;4.648;2023-03-01T17:15:00;4.10;;;1.30;;
48941;SDS011;35340;52.378;4.648;2023-03-01T17:17:25;4.18;;;1.40;;
48941;SDS011;35340;52.378;4.648;2023-03-01T17:19:51;2.05;;;1.15;;
48941;SDS011;35340;52.378;4.648;2023-03-01T17:22:17;1.85;;;1.20;;
48941;SDS011;35340;52.378;4.648;2023-03-01T17:24:43;1.98;;;1.20;;
48941;SDS011;35340;52.378;4.648;2023-03-01T17:27:09;2.45;;;1.33;;
48941;SDS011;35340;52.378;4.648;2023-03-01T17:29:44;1.90;;;1.10;;
48941;SDS011;35340;52.378;4.648;2023-03-01T17:32:26;2.47;;;1.20;;
48941;SDS011;35340;52.378;4.648;2023-03-01T17:34:54;3.42;;;1.20;;
48941;SDS011;35340;52.378;4.648;2023-03-01T17:37:20;5.20;;;1.30;;
48941;SDS011;35340;52.378;4.648;2023-03-01T17:39:55;4.20;;;1.38;;
48941;SDS011;35340;52.378;4.648;2023-03-01T17:42:20;8.30;;;1.30;;
48941;SDS011;35340;52.378;4.648;2023-03-01T17:44:46;5.35;;;1.10;;
48941;SDS011;35340;52.378;4.648;2023-03-01T17:47:12;5.18;;;1.52;;
48941;SDS011;35340;52.378;4.648;2023-03-01T17:49:37;4.30;;;1.45;;
48941;SDS011;35340;52.378;4.648;2023-03-01T17:52:03;6.10;;;1.40;;
48941;SDS011;35340;52.378;4.648;2023-03-01T17:54:28;3.90;;;1.30;;
48941;SDS011;35340;52.378;4.648;2023-03-01T17:56:54;5.38;;;1.13;;
48941;SDS011;35340;52.378;4.648;2023-03-01T17:59:20;2.58;;;1.10;;
48941;SDS011;35340;52.378;4.648;2023-03-01T18:01:48;3.20;;;1.40;;
48941;SDS011;35340;52.378;4.648;2023-03-01T18:04:14;2.30;;;1.30;;
48941;SDS011;35340;52.378;4.648;2023-03-01T18:06:42;5.53;;;1.17;;
48941;SDS011;35340;52.378;4.648;2023-03-01T18:09:08;2.28;;;1.40;;
48941;SDS011;35340;52.378;4.648;2023-03-01T18:11:35;2.08;;;1.30;;
48941;SDS011;35340;52.378;4.648;2023-03-01T18:14:03;3.08;;;1.30;;
48941;SDS011;35340;52.378;4.648;2023-03-01T18:16:29;5.25;;;1.08;;
48941;SDS011;35340;52.378;4.648;2023-03-01T18:18:58;2.10;;;1.40;;
48941;SDS011;35340;52.378;4.648;2023-03-01T18:21:24;1.77;;;1.02;;
48941;SDS011;35340;52.378;4.648;2023-03-01T18:23:50;1.70;;;1.10;;
48941;SDS011;35340;52.378;4.648;2023-03-01T18:26:16;2.35;;;1.23;;
48941;SDS011;35340;52.378;4.648;2023-03-01T18:28:43;4.88;;;1.20;;
48941;SDS011;35340;52.378;4.648;2023-03-01T18:31:13;1.75;;;1.00;;
48941;SDS011;35340;52.378;4.648;2023-03-01T18:34:18;2.90;;;1.27;;
48941;SDS011;35340;52.378;4.648;2023-03-01T18:36:47;2.47;;;1.08;;
48941;SDS011;35340;52.378;4.648;2023-03-01T18:39:12;2.13;;;1.02;;
48941;SDS011;35340;52.378;4.648;2023-03-01T18:41:41;3.17;;;1.30;;
48941;SDS011;35340;52.378;4.648;2023-03-01T18:44:07;1.60;;;1.13;;
48941;SDS011;35340;52.378;4.648;2023-03-01T18:46:41;2.65;;;1.30;;
48941;SDS011;35340;52.378;4.648;2023-03-01T18:49:10;1.40;;;1.08;;
48941;SDS011;35340;52.378;4.648;2023-03-01T18:51:44;2.83;;;1.20;;
48941;SDS011;35340;52.378;4.648;2023-03-01T18:54:16;1.48;;;1.00;;
48941;SDS011;35340;52.378;4.648;2023-03-01T18:56:44;2.05;;;1.20;;
48941;SDS011;35340;52.378;4.648;2023-03-01T18:59:10;1.65;;;1.10;;
48941;SDS011;35340;52.378;4.648;2023-03-01T19:01:35;2.33;;;1.17;;
48941;SDS011;35340;52.378;4.648;2023-03-01T19:04:01;1.67;;;1.10;;
48941;SDS011;35340;52.378;4.648;2023-03-01T19:06:30;1.90;;;1.17;;